sensor_id;sensor_type;location;lat;lon;timestamp;P1;durP1;ratioP1;P2;durP2;ratioP2
15921;SDS011;8060;50.948;3.146;2023-10-19T00:00:55;4.80;;;1.30;;
15921;SDS011;8060;50.948;3.146;2023-10-19T00:03:23;7.50;;;1.07;;
15921;SDS011;8060;50.948;3.146;2023-10-19T00:05:52;5.70;;;0.80;;
15921;SDS011;8060;50.948;3.146;2023-10-19T00:08:23;4.30;;;0.97;;
15921;SDS011;8060;50.948;3.146;2023-10-19T00:10:51;2.63;;;0.67;;
15921;SDS011;8060;50.948;3.146;2023-10-19T00:13:27;5.67;;;0.70;;
15921;SDS011;8060;50.948;3.146;2023-10-19T00:15:55;4.03;;;0.67;;
15921;SDS011;8060;50.948;3.146;2023-10-19T00:18:25;4.70;;;0.83;;
15921;SDS011;8060;50.948;3.146;2023-10-19T00:20:53;2.53;;;0.60;;
15921;SDS011;8060;50.948;3.146;2023-10-19T00:23:26;4.93;;;1.33;;
15921;SDS011;8060;50.948;3.146;2023-10-19T00:25:57;4.37;;;1.07;;
15921;SDS011;8060;50.948;3.146;2023-10-19T00:28:26;2.07;;;0.60;;
15921;SDS011;8060;50.948;3.146;2023-10-19T00:30:54;1.40;;;0.70;;
15921;SDS011;8060;50.948;3.146;2023-10-19T00:33:34;3.27;;;0.80;;
15921;SDS011;8060;50.948;3.146;2023-10-19T00:36:07;4.97;;;1.00;;
15921;SDS011;8060;50.948;3.146;2023-10-19T00:38:39;3.83;;;0.80;;
15921;SDS011;8060;50.948;3.146;2023-10-19T00:41:14;8.80;;;1.37;;
15921;SDS011;8060;50.948;3.146;2023-10-19T00:43:48;5.53;;;0.87;;
15921;SDS011;8060;50.948;3.146;2023-10-19T00:46:23;4.57;;;1.03;;
15921;SDS011;8060;50.948;3.146;2023-10-19T00:48:59;6.93;;;1.07;;
15921;SDS011;8060;50.948;3.146;2023-10-19T00:51:34;6.80;;;1.00;;
15921;SDS011;8060;50.948;3.146;2023-10-19T00:54:17;4.80;;;1.10;;
15921;SDS011;8060;50.948;3.146;2023-10-19T00:56:53;7.10;;;0.90;;
15921;SDS011;8060;50.948;3.146;2023-10-19T00:59:29;5.70;;;1.07;;
15921;SDS011;8060;50.948;3.146;2023-10-19T01:02:01;6.53;;;0.80;;
15921;SDS011;8060;50.948;3.146;2023-10-19T01:04:44;4.53;;;1.10;;
15921;SDS011;8060;50.948;3.146;2023-10-19T01:07:18;9.40;;;1.67;;
15921;SDS011;8060;50.948;3.146;2023-10-19T01:09:53;5.33;;;1.23;;
15921;SDS011;8060;50.948;3.146;2023-10-19T01:12:23;9.03;;;1.10;;
15921;SDS011;8060;50.948;3.146;2023-10-19T01:15:00;5.93;;;0.90;;
15921;SDS011;8060;50.948;3.146;2023-10-19T01:17:34;6.07;;;1.13;;
15921;SDS011;8060;50.948;3.146;2023-10-19T01:20:07;7.17;;;1.33;;
15921;SDS011;8060;50.948;3.146;2023-10-19T01:22:48;9.40;;;1.50;;
15921;SDS011;8060;50.948;3.146;2023-10-19T01:25:32;6.30;;;1.07;;
15921;SDS011;8060;50.948;3.146;2023-10-19T01:28:12;5.70;;;1.00;;
15921;SDS011;8060;50.948;3.146;2023-10-19T01:30:43;3.63;;;1.07;;
15921;SDS011;8060;50.948;3.146;2023-10-19T01:33:12;8.73;;;1.20;;
15921;SDS011;8060;50.948;3.146;2023-10-19T01:35:42;4.07;;;1.00;;
15921;SDS011;8060;50.948;3.146;2023-10-19T01:38:29;12.47;;;1.50;;
15921;SDS011;8060;50.948;3.146;2023-10-19T01:40:58;6.20;;;1.20;;
15921;SDS011;8060;50.948;3.146;2023-10-19T01:43:26;14.10;;;1.73;;
15921;SDS011;8060;50.948;3.146;2023-10-19T01:45:57;6.90;;;1.33;;
15921;SDS011;8060;50.948;3.146;2023-10-19T01:48:25;5.90;;;0.90;;
15921;SDS011;8060;50.948;3.146;2023-10-19T01:51:01;3.97;;;1.10;;
15921;SDS011;8060;50.948;3.146;2023-10-19T01:53:31;9.40;;;1.30;;
15921;SDS011;8060;50.948;3.146;2023-10-19T01:56:00;4.33;;;0.90;;
15921;SDS011;8060;50.948;3.146;2023-10-19T01:58:32;4.93;;;1.20;;
15921;SDS011;8060;50.948;3.146;2023-10-19T02:01:03;8.07;;;1.60;;
15921;SDS011;8060;50.948;3.146;2023-10-19T02:03:41;5.47;;;1.00;;
15921;SDS011;8060;50.948;3.146;2023-10-19T02:06:10;7.07;;;1.17;;
15921;SDS011;8060;50.948;3.146;2023-10-19T02:08:48;3.73;;;1.10;;
15921;SDS011;8060;50.948;3.146;2023-10-19T02:11:19;5.70;;;1.40;;
15921;SDS011;8060;50.948;3.146;2023-10-19T02:13:48;7.43;;;1.30;;
15921;SDS011;8060;50.948;3.146;2023-10-19T02:16:18;8.23;;;1.33;;
15921;SDS011;8060;50.948;3.146;2023-10-19T02:18:49;10.53;;;1.40;;
15921;SDS011;8060;50.948;3.146;2023-10-19T02:21:17;7.50;;;1.30;;
15921;SDS011;8060;50.948;3.146;2023-10-19T02:23:50;8.17;;;1.10;;
15921;SDS011;8060;50.948;3.146;2023-10-19T02:26:17;8.57;;;1.83;;
15921;SDS011;8060;50.948;3.146;2023-10-19T02:28:46;8.43;;;1.77;;
15921;SDS011;8060;50.948;3.146;2023-10-19T02:31:14;6.97;;;1.20;;
15921;SDS011;8060;50.948;3.146;2023-10-19T02:33:45;7.03;;;1.13;;
15921;SDS011;8060;50.948;3.146;2023-10-19T02:36:13;5.10;;;0.97;;
15921;SDS011;8060;50.948;3.146;2023-10-19T02:38:42;6.33;;;1.53;;
15921;SDS011;8060;50.948;3.146;2023-10-19T02:41:16;4.30;;;1.13;;
15921;SDS011;8060;50.948;3.146;2023-10-19T02:43:45;6.20;;;1.30;;
15921;SDS011;8060;50.948;3.146;2023-10-19T02:46:17;7.40;;;1.27;;
15921;SDS011;8060;50.948;3.146;2023-10-19T02:48:47;3.40;;;1.10;;
15921;SDS011;8060;50.948;3.146;2023-10-19T02:51:16;4.47;;;1.00;;
15921;SDS011;8060;50.948;3.146;2023-10-19T02:53:45;9.07;;;1.30;;
15921;SDS011;8060;50.948;3.146;2023-10-19T02:56:13;4.37;;;1.23;;
15921;SDS011;8060;50.948;3.146;2023-10-19T02:58:45;5.67;;;1.50;;
15921;SDS011;8060;50.948;3.146;2023-10-19T03:01:16;9.13;;;1.40;;
15921;SDS011;8060;50.948;3.146;2023-10-19T03:03:48;6.73;;;1.60;;
15921;SDS011;8060;50.948;3.146;2023-10-19T03:06:18;9.50;;;1.27;;
15921;SDS011;8060;50.948;3.146;2023-10-19T03:08:46;9.30;;;1.73;;
15921;SDS011;8060;50.948;3.146;2023-10-19T03:11:20;8.40;;;1.63;;
15921;SDS011;8060;50.948;3.146;2023-10-19T03:13:47;5.70;;;1.20;;
15921;SDS011;8060;50.948;3.146;2023-10-19T03:16:17;8.53;;;1.40;;
15921;SDS011;8060;50.948;3.146;2023-10-19T03:18:45;8.73;;;1.80;;
15921;SDS011;8060;50.948;3.146;2023-10-19T03:21:13;9.57;;;1.40;;
15921;SDS011;8060;50.948;3.146;2023-10-19T03:23:42;8.40;;;1.50;;
15921;SDS011;8060;50.948;3.146;2023-10-19T03:26:10;5.87;;;1.37;;
15921;SDS011;8060;50.948;3.146;2023-10-19T03:28:58;7.67;;;1.50;;
15921;SDS011;8060;50.948;3.146;2023-10-19T03:31:34;6.37;;;1.77;;
15921;SDS011;8060;50.948;3.146;2023-10-19T03:34:09;10.97;;;1.90;;
15921;SDS011;8060;50.948;3.146;2023-10-19T03:36:39;8.07;;;1.40;;
15921;SDS011;8060;50.948;3.146;2023-10-19T03:39:08;11.23;;;1.60;;
15921;SDS011;8060;50.948;3.146;2023-10-19T03:41:40;7.53;;;1.63;;
15921;SDS011;8060;50.948;3.146;2023-10-19T03:44:11;10.37;;;1.83;;
15921;SDS011;8060;50.948;3.146;2023-10-19T03:46:45;10.50;;;1.73;;
15921;SDS011;8060;50.948;3.146;2023-10-19T03:49:24;10.07;;;1.97;;
15921;SDS011;8060;50.948;3.146;2023-10-19T03:51:59;7.20;;;1.70;;
15921;SDS011;8060;50.948;3.146;2023-10-19T03:54:46;11.43;;;1.90;;
15921;SDS011;8060;50.948;3.146;2023-10-19T03:57:17;11.53;;;1.80;;
15921;SDS011;8060;50.948;3.146;2023-10-19T03:59:52;8.73;;;1.50;;
15921;SDS011;8060;50.948;3.146;2023-10-19T04:02:23;9.13;;;1.73;;
15921;SDS011;8060;50.948;3.146;2023-10-19T04:04:53;12.60;;;1.80;;
15921;SDS011;8060;50.948;3.146;2023-10-19T04:07:22;8.87;;;1.70;;
15921;SDS011;8060;50.948;3.146;2023-10-19T04:09:52;11.27;;;1.90;;
15921;SDS011;8060;50.948;3.146;2023-10-19T04:12:26;11.27;;;2.20;;
15921;SDS011;8060;50.948;3.146;2023-10-19T04:14:58;9.23;;;1.97;;
15921;SDS011;8060;50.948;3.146;2023-10-19T04:17:35;10.47;;;1.67;;
15921;SDS011;8060;50.948;3.146;2023-10-19T04:20:05;11.17;;;2.27;;
15921;SDS011;8060;50.948;3.146;2023-10-19T04:22:52;12.13;;;1.87;;
15921;SDS011;8060;50.948;3.146;2023-10-19T04:25:21;9.00;;;2.50;;
15921;SDS011;8060;50.948;3.146;2023-10-19T04:27:52;8.97;;;1.70;;
15921;SDS011;8060;50.948;3.146;2023-10-19T04:30:24;8.43;;;1.93;;
15921;SDS011;8060;50.948;3.146;2023-10-19T04:32:53;12.47;;;2.17;;
15921;SDS011;8060;50.948;3.146;2023-10-19T04:35:24;9.03;;;1.80;;
15921;SDS011;8060;50.948;3.146;2023-10-19T04:37:56;13.43;;;1.60;;
15921;SDS011;8060;50.948;3.146;2023-10-19T04:40:26;14.20;;;1.77;;
15921;SDS011;8060;50.948;3.146;2023-10-19T04:42:54;7.93;;;2.13;;
15921;SDS011;8060;50.948;3.146;2023-10-19T04:45:22;6.57;;;1.60;;
15921;SDS011;8060;50.948;3.146;2023-10-19T04:47:52;10.43;;;1.70;;
15921;SDS011;8060;50.948;3.146;2023-10-19T04:50:21;19.83;;;2.10;;
15921;SDS011;8060;50.948;3.146;2023-10-19T04:52:50;10.30;;;2.27;;
15921;SDS011;8060;50.948;3.146;2023-10-19T04:55:18;12.97;;;2.07;;
15921;SDS011;8060;50.948;3.146;2023-10-19T04:57:46;12.63;;;2.00;;
15921;SDS011;8060;50.948;3.146;2023-10-19T05:00:16;10.17;;;1.70;;
15921;SDS011;8060;50.948;3.146;2023-10-19T05:02:48;10.37;;;2.20;;
15921;SDS011;8060;50.948;3.146;2023-10-19T05:05:18;14.33;;;2.33;;
15921;SDS011;8060;50.948;3.146;2023-10-19T05:07:46;8.87;;;1.60;;
15921;SDS011;8060;50.948;3.146;2023-10-19T05:10:15;12.33;;;2.13;;
15921;SDS011;8060;50.948;3.146;2023-10-19T05:12:44;10.23;;;2.60;;
15921;SDS011;8060;50.948;3.146;2023-10-19T05:15:12;14.13;;;2.50;;
15921;SDS011;8060;50.948;3.146;2023-10-19T05:17:40;18.90;;;2.97;;
15921;SDS011;8060;50.948;3.146;2023-10-19T05:20:10;12.43;;;2.37;;
15921;SDS011;8060;50.948;3.146;2023-10-19T05:22:38;15.93;;;3.10;;
15921;SDS011;8060;50.948;3.146;2023-10-19T05:25:07;17.23;;;3.43;;
15921;SDS011;8060;50.948;3.146;2023-10-19T05:27:35;15.73;;;2.93;;
15921;SDS011;8060;50.948;3.146;2023-10-19T05:30:06;15.97;;;2.50;;
15921;SDS011;8060;50.948;3.146;2023-10-19T05:32:36;17.57;;;3.70;;
15921;SDS011;8060;50.948;3.146;2023-10-19T05:35:05;15.87;;;4.30;;
15921;SDS011;8060;50.948;3.146;2023-10-19T05:37:35;16.63;;;3.60;;
15921;SDS011;8060;50.948;3.146;2023-10-19T05:40:03;18.43;;;3.30;;
15921;SDS011;8060;50.948;3.146;2023-10-19T05:42:39;14.60;;;3.07;;
15921;SDS011;8060;50.948;3.146;2023-10-19T05:45:07;16.90;;;2.80;;
15921;SDS011;8060;50.948;3.146;2023-10-19T05:47:39;16.90;;;2.80;;
15921;SDS011;8060;50.948;3.146;2023-10-19T05:50:08;11.27;;;2.30;;
15921;SDS011;8060;50.948;3.146;2023-10-19T05:52:42;13.20;;;2.73;;
15921;SDS011;8060;50.948;3.146;2023-10-19T05:55:11;24.40;;;3.50;;
15921;SDS011;8060;50.948;3.146;2023-10-19T05:57:39;16.10;;;2.50;;
15921;SDS011;8060;50.948;3.146;2023-10-19T06:00:08;15.50;;;3.23;;
15921;SDS011;8060;50.948;3.146;2023-10-19T06:02:41;18.47;;;3.00;;
15921;SDS011;8060;50.948;3.146;2023-10-19T06:05:12;13.17;;;2.30;;
15921;SDS011;8060;50.948;3.146;2023-10-19T06:07:43;16.40;;;2.97;;
15921;SDS011;8060;50.948;3.146;2023-10-19T06:10:13;13.83;;;2.33;;
15921;SDS011;8060;50.948;3.146;2023-10-19T06:12:48;14.57;;;2.40;;
15921;SDS011;8060;50.948;3.146;2023-10-19T06:15:18;13.90;;;2.33;;
15921;SDS011;8060;50.948;3.146;2023-10-19T06:17:47;20.57;;;2.77;;
15921;SDS011;8060;50.948;3.146;2023-10-19T06:20:16;13.83;;;2.77;;
15921;SDS011;8060;50.948;3.146;2023-10-19T06:22:52;18.67;;;2.67;;
15921;SDS011;8060;50.948;3.146;2023-10-19T06:25:23;15.37;;;2.87;;
15921;SDS011;8060;50.948;3.146;2023-10-19T06:27:52;13.47;;;2.80;;
15921;SDS011;8060;50.948;3.146;2023-10-19T06:30:23;11.63;;;2.20;;
15921;SDS011;8060;50.948;3.146;2023-10-19T06:32:53;23.10;;;3.20;;
15921;SDS011;8060;50.948;3.146;2023-10-19T06:35:23;20.33;;;3.10;;
15921;SDS011;8060;50.948;3.146;2023-10-19T06:37:53;17.77;;;2.40;;
15921;SDS011;8060;50.948;3.146;2023-10-19T06:40:22;17.37;;;3.33;;
15921;SDS011;8060;50.948;3.146;2023-10-19T06:42:50;14.80;;;2.83;;
15921;SDS011;8060;50.948;3.146;2023-10-19T06:45:18;23.40;;;3.30;;
15921;SDS011;8060;50.948;3.146;2023-10-19T06:47:47;19.43;;;3.50;;
15921;SDS011;8060;50.948;3.146;2023-10-19T06:50:17;15.50;;;3.30;;
15921;SDS011;8060;50.948;3.146;2023-10-19T06:52:47;16.27;;;3.37;;
15921;SDS011;8060;50.948;3.146;2023-10-19T06:55:17;21.07;;;3.37;;
15921;SDS011;8060;50.948;3.146;2023-10-19T06:57:47;19.87;;;3.07;;
15921;SDS011;8060;50.948;3.146;2023-10-19T07:00:17;14.10;;;2.87;;
15921;SDS011;8060;50.948;3.146;2023-10-19T07:02:47;17.33;;;3.17;;
15921;SDS011;8060;50.948;3.146;2023-10-19T07:05:17;15.33;;;3.33;;
15921;SDS011;8060;50.948;3.146;2023-10-19T07:07:48;19.83;;;3.27;;
15921;SDS011;8060;50.948;3.146;2023-10-19T07:10:19;19.87;;;3.70;;
15921;SDS011;8060;50.948;3.146;2023-10-19T07:12:51;16.57;;;3.17;;
15921;SDS011;8060;50.948;3.146;2023-10-19T07:15:20;19.83;;;3.20;;
15921;SDS011;8060;50.948;3.146;2023-10-19T07:17:51;19.63;;;3.17;;
15921;SDS011;8060;50.948;3.146;2023-10-19T07:20:20;16.53;;;2.87;;
15921;SDS011;8060;50.948;3.146;2023-10-19T07:22:52;28.80;;;3.63;;
15921;SDS011;8060;50.948;3.146;2023-10-19T07:25:22;20.17;;;3.97;;
15921;SDS011;8060;50.948;3.146;2023-10-19T07:27:52;22.40;;;4.17;;
15921;SDS011;8060;50.948;3.146;2023-10-19T07:30:21;16.40;;;4.03;;
15921;SDS011;8060;50.948;3.146;2023-10-19T07:32:53;18.27;;;3.60;;
15921;SDS011;8060;50.948;3.146;2023-10-19T07:35:25;16.77;;;3.57;;
15921;SDS011;8060;50.948;3.146;2023-10-19T07:37:54;20.03;;;3.97;;
15921;SDS011;8060;50.948;3.146;2023-10-19T07:40:24;20.00;;;3.93;;
15921;SDS011;8060;50.948;3.146;2023-10-19T07:42:54;16.70;;;3.77;;
15921;SDS011;8060;50.948;3.146;2023-10-19T07:45:22;19.80;;;3.63;;
15921;SDS011;8060;50.948;3.146;2023-10-19T07:47:52;22.63;;;4.40;;
15921;SDS011;8060;50.948;3.146;2023-10-19T07:50:20;23.03;;;3.80;;
15921;SDS011;8060;50.948;3.146;2023-10-19T07:52:49;21.07;;;4.20;;
15921;SDS011;8060;50.948;3.146;2023-10-19T07:55:20;17.80;;;3.77;;
15921;SDS011;8060;50.948;3.146;2023-10-19T07:57:51;18.57;;;4.60;;
15921;SDS011;8060;50.948;3.146;2023-10-19T08:00:20;15.13;;;3.77;;
15921;SDS011;8060;50.948;3.146;2023-10-19T08:02:49;18.27;;;4.57;;
15921;SDS011;8060;50.948;3.146;2023-10-19T08:05:20;18.23;;;3.70;;
15921;SDS011;8060;50.948;3.146;2023-10-19T08:07:48;16.97;;;4.00;;
15921;SDS011;8060;50.948;3.146;2023-10-19T08:10:17;17.50;;;3.87;;
15921;SDS011;8060;50.948;3.146;2023-10-19T08:12:46;18.13;;;3.97;;
15921;SDS011;8060;50.948;3.146;2023-10-19T08:15:16;15.90;;;2.77;;
15921;SDS011;8060;50.948;3.146;2023-10-19T08:17:47;17.77;;;3.50;;
15921;SDS011;8060;50.948;3.146;2023-10-19T08:20:16;18.87;;;3.37;;
15921;SDS011;8060;50.948;3.146;2023-10-19T08:22:50;22.90;;;3.07;;
15921;SDS011;8060;50.948;3.146;2023-10-19T08:25:19;17.13;;;3.40;;
15921;SDS011;8060;50.948;3.146;2023-10-19T08:27:48;21.03;;;4.03;;
15921;SDS011;8060;50.948;3.146;2023-10-19T08:30:18;18.30;;;3.30;;
15921;SDS011;8060;50.948;3.146;2023-10-19T08:32:51;22.50;;;3.40;;
15921;SDS011;8060;50.948;3.146;2023-10-19T08:35:20;22.57;;;3.40;;
15921;SDS011;8060;50.948;3.146;2023-10-19T08:37:51;12.97;;;3.10;;
15921;SDS011;8060;50.948;3.146;2023-10-19T08:40:20;22.33;;;4.07;;
15921;SDS011;8060;50.948;3.146;2023-10-19T08:42:50;14.67;;;3.07;;
15921;SDS011;8060;50.948;3.146;2023-10-19T08:45:19;23.63;;;3.33;;
15921;SDS011;8060;50.948;3.146;2023-10-19T08:47:49;23.13;;;3.10;;
15921;SDS011;8060;50.948;3.146;2023-10-19T08:50:23;18.77;;;3.30;;
15921;SDS011;8060;50.948;3.146;2023-10-19T08:52:52;26.00;;;3.70;;
15921;SDS011;8060;50.948;3.146;2023-10-19T08:55:22;19.77;;;3.80;;
15921;SDS011;8060;50.948;3.146;2023-10-19T08:58:06;21.77;;;3.50;;
15921;SDS011;8060;50.948;3.146;2023-10-19T09:00:46;18.70;;;3.20;;
15921;SDS011;8060;50.948;3.146;2023-10-19T09:03:18;17.80;;;2.77;;
15921;SDS011;8060;50.948;3.146;2023-10-19T09:05:48;15.73;;;3.60;;
15921;SDS011;8060;50.948;3.146;2023-10-19T09:08:17;21.77;;;3.63;;
15921;SDS011;8060;50.948;3.146;2023-10-19T09:10:49;18.17;;;3.27;;
15921;SDS011;8060;50.948;3.146;2023-10-19T09:13:20;18.20;;;4.13;;
15921;SDS011;8060;50.948;3.146;2023-10-19T09:15:51;19.00;;;2.90;;
15921;SDS011;8060;50.948;3.146;2023-10-19T09:18:22;13.40;;;2.93;;
15921;SDS011;8060;50.948;3.146;2023-10-19T09:20:55;16.67;;;2.87;;
15921;SDS011;8060;50.948;3.146;2023-10-19T09:23:29;17.07;;;3.50;;
15921;SDS011;8060;50.948;3.146;2023-10-19T09:25:59;15.23;;;3.33;;
15921;SDS011;8060;50.948;3.146;2023-10-19T09:28:30;19.60;;;3.57;;
15921;SDS011;8060;50.948;3.146;2023-10-19T09:31:02;20.00;;;3.57;;
15921;SDS011;8060;50.948;3.146;2023-10-19T09:33:31;21.83;;;3.40;;
15921;SDS011;8060;50.948;3.146;2023-10-19T09:36:02;20.07;;;3.23;;
15921;SDS011;8060;50.948;3.146;2023-10-19T09:38:43;15.97;;;3.37;;
15921;SDS011;8060;50.948;3.146;2023-10-19T09:41:15;14.60;;;2.93;;
15921;SDS011;8060;50.948;3.146;2023-10-19T09:43:45;22.93;;;2.93;;
15921;SDS011;8060;50.948;3.146;2023-10-19T09:46:20;14.87;;;3.03;;
15921;SDS011;8060;50.948;3.146;2023-10-19T09:48:49;15.93;;;3.10;;
15921;SDS011;8060;50.948;3.146;2023-10-19T09:51:19;24.07;;;4.10;;
15921;SDS011;8060;50.948;3.146;2023-10-19T09:53:49;18.00;;;3.17;;
15921;SDS011;8060;50.948;3.146;2023-10-19T09:56:21;25.93;;;3.83;;
15921;SDS011;8060;50.948;3.146;2023-10-19T09:58:57;14.33;;;2.97;;
15921;SDS011;8060;50.948;3.146;2023-10-19T10:04:35;19.97;;;3.23;;
15921;SDS011;8060;50.948;3.146;2023-10-19T10:07:04;18.97;;;3.03;;
15921;SDS011;8060;50.948;3.146;2023-10-19T10:09:34;17.50;;;3.10;;
15921;SDS011;8060;50.948;3.146;2023-10-19T10:12:16;14.03;;;3.63;;
15921;SDS011;8060;50.948;3.146;2023-10-19T10:14:55;19.40;;;3.07;;
15921;SDS011;8060;50.948;3.146;2023-10-19T10:17:25;16.47;;;3.27;;
15921;SDS011;8060;50.948;3.146;2023-10-19T10:19:56;17.03;;;3.07;;
15921;SDS011;8060;50.948;3.146;2023-10-19T10:22:39;16.67;;;2.93;;
15921;SDS011;8060;50.948;3.146;2023-10-19T10:25:09;18.97;;;3.07;;
15921;SDS011;8060;50.948;3.146;2023-10-19T10:27:54;14.90;;;3.57;;
15921;SDS011;8060;50.948;3.146;2023-10-19T10:30:23;12.67;;;2.60;;
15921;SDS011;8060;50.948;3.146;2023-10-19T10:32:51;14.13;;;3.07;;
15921;SDS011;8060;50.948;3.146;2023-10-19T10:38:22;18.37;;;2.80;;
15921;SDS011;8060;50.948;3.146;2023-10-19T10:40:50;13.67;;;2.77;;
15921;SDS011;8060;50.948;3.146;2023-10-19T10:43:19;15.27;;;2.67;;
15921;SDS011;8060;50.948;3.146;2023-10-19T10:45:47;16.33;;;2.30;;
15921;SDS011;8060;50.948;3.146;2023-10-19T10:48:16;15.00;;;2.50;;
15921;SDS011;8060;50.948;3.146;2023-10-19T10:50:46;14.57;;;2.53;;
15921;SDS011;8060;50.948;3.146;2023-10-19T10:53:15;16.10;;;2.73;;
15921;SDS011;8060;50.948;3.146;2023-10-19T10:55:44;11.80;;;2.30;;
15921;SDS011;8060;50.948;3.146;2023-10-19T10:58:14;12.30;;;2.43;;
15921;SDS011;8060;50.948;3.146;2023-10-19T11:00:43;12.77;;;2.20;;
15921;SDS011;8060;50.948;3.146;2023-10-19T11:03:11;11.97;;;2.30;;
15921;SDS011;8060;50.948;3.146;2023-10-19T11:05:40;8.17;;;2.03;;
15921;SDS011;8060;50.948;3.146;2023-10-19T11:08:12;13.60;;;2.60;;
15921;SDS011;8060;50.948;3.146;2023-10-19T11:10:44;16.03;;;2.70;;
15921;SDS011;8060;50.948;3.146;2023-10-19T11:13:13;12.93;;;2.03;;
15921;SDS011;8060;50.948;3.146;2023-10-19T11:15:47;16.57;;;2.60;;
15921;SDS011;8060;50.948;3.146;2023-10-19T11:18:27;13.23;;;2.73;;
15921;SDS011;8060;50.948;3.146;2023-10-19T11:20:56;10.13;;;2.60;;
15921;SDS011;8060;50.948;3.146;2023-10-19T11:23:39;13.63;;;2.90;;
15921;SDS011;8060;50.948;3.146;2023-10-19T11:26:10;12.77;;;2.77;;
15921;SDS011;8060;50.948;3.146;2023-10-19T11:28:40;10.63;;;1.97;;
15921;SDS011;8060;50.948;3.146;2023-10-19T11:31:14;13.43;;;2.47;;
15921;SDS011;8060;50.948;3.146;2023-10-19T11:33:45;11.47;;;2.43;;
15921;SDS011;8060;50.948;3.146;2023-10-19T11:36:15;14.60;;;2.10;;
15921;SDS011;8060;50.948;3.146;2023-10-19T11:38:45;11.17;;;2.17;;
15921;SDS011;8060;50.948;3.146;2023-10-19T11:41:16;11.97;;;2.93;;
15921;SDS011;8060;50.948;3.146;2023-10-19T11:43:44;17.97;;;2.63;;
15921;SDS011;8060;50.948;3.146;2023-10-19T11:46:14;12.77;;;2.67;;
15921;SDS011;8060;50.948;3.146;2023-10-19T11:48:44;14.03;;;3.20;;
15921;SDS011;8060;50.948;3.146;2023-10-19T11:51:13;6.77;;;2.20;;
15921;SDS011;8060;50.948;3.146;2023-10-19T11:53:41;7.57;;;2.03;;
15921;SDS011;8060;50.948;3.146;2023-10-19T11:56:11;6.93;;;2.03;;
15921;SDS011;8060;50.948;3.146;2023-10-19T11:58:41;13.70;;;2.43;;
15921;SDS011;8060;50.948;3.146;2023-10-19T12:01:13;15.43;;;2.37;;
15921;SDS011;8060;50.948;3.146;2023-10-19T12:03:44;7.10;;;2.10;;
15921;SDS011;8060;50.948;3.146;2023-10-19T12:06:13;11.87;;;2.30;;
15921;SDS011;8060;50.948;3.146;2023-10-19T12:08:45;11.27;;;2.10;;
15921;SDS011;8060;50.948;3.146;2023-10-19T12:11:14;9.97;;;2.20;;
15921;SDS011;8060;50.948;3.146;2023-10-19T12:13:44;10.17;;;2.60;;
15921;SDS011;8060;50.948;3.146;2023-10-19T12:16:14;13.40;;;2.40;;
15921;SDS011;8060;50.948;3.146;2023-10-19T12:18:43;9.73;;;2.17;;
15921;SDS011;8060;50.948;3.146;2023-10-19T12:21:12;10.77;;;2.37;;
15921;SDS011;8060;50.948;3.146;2023-10-19T12:23:41;10.33;;;2.50;;
15921;SDS011;8060;50.948;3.146;2023-10-19T12:26:10;8.40;;;2.13;;
15921;SDS011;8060;50.948;3.146;2023-10-19T12:28:39;8.50;;;2.10;;
15921;SDS011;8060;50.948;3.146;2023-10-19T12:31:09;9.67;;;2.13;;
15921;SDS011;8060;50.948;3.146;2023-10-19T12:33:38;11.03;;;2.60;;
15921;SDS011;8060;50.948;3.146;2023-10-19T12:36:08;7.50;;;2.00;;
15921;SDS011;8060;50.948;3.146;2023-10-19T12:38:57;6.00;;;2.20;;
15921;SDS011;8060;50.948;3.146;2023-10-19T12:41:26;8.73;;;1.70;;
15921;SDS011;8060;50.948;3.146;2023-10-19T12:43:55;9.23;;;2.20;;
15921;SDS011;8060;50.948;3.146;2023-10-19T12:46:26;13.10;;;2.20;;
15921;SDS011;8060;50.948;3.146;2023-10-19T12:48:56;11.67;;;2.70;;
15921;SDS011;8060;50.948;3.146;2023-10-19T12:51:25;11.03;;;2.40;;
15921;SDS011;8060;50.948;3.146;2023-10-19T12:53:53;8.27;;;2.03;;
15921;SDS011;8060;50.948;3.146;2023-10-19T12:56:22;4.20;;;1.60;;
15921;SDS011;8060;50.948;3.146;2023-10-19T12:58:51;10.07;;;2.13;;
15921;SDS011;8060;50.948;3.146;2023-10-19T13:01:21;11.17;;;2.00;;
15921;SDS011;8060;50.948;3.146;2023-10-19T13:03:50;9.67;;;2.00;;
15921;SDS011;8060;50.948;3.146;2023-10-19T13:06:18;8.33;;;2.50;;
15921;SDS011;8060;50.948;3.146;2023-10-19T13:08:47;9.10;;;2.30;;
15921;SDS011;8060;50.948;3.146;2023-10-19T13:11:15;6.17;;;2.00;;
15921;SDS011;8060;50.948;3.146;2023-10-19T13:13:45;10.60;;;2.30;;
15921;SDS011;8060;50.948;3.146;2023-10-19T13:16:14;11.23;;;2.27;;
15921;SDS011;8060;50.948;3.146;2023-10-19T13:18:43;6.87;;;2.07;;
15921;SDS011;8060;50.948;3.146;2023-10-19T13:21:13;6.23;;;2.37;;
15921;SDS011;8060;50.948;3.146;2023-10-19T13:23:48;7.87;;;2.13;;
15921;SDS011;8060;50.948;3.146;2023-10-19T13:26:17;6.20;;;1.90;;
15921;SDS011;8060;50.948;3.146;2023-10-19T13:28:45;9.73;;;2.00;;
15921;SDS011;8060;50.948;3.146;2023-10-19T13:31:15;8.73;;;2.37;;
15921;SDS011;8060;50.948;3.146;2023-10-19T13:33:45;10.60;;;2.10;;
15921;SDS011;8060;50.948;3.146;2023-10-19T13:36:15;6.37;;;2.23;;
15921;SDS011;8060;50.948;3.146;2023-10-19T13:38:43;8.73;;;2.13;;
15921;SDS011;8060;50.948;3.146;2023-10-19T13:41:11;6.17;;;1.60;;
15921;SDS011;8060;50.948;3.146;2023-10-19T13:43:43;6.88;;;1.40;;
15921;SDS011;8060;50.948;3.146;2023-10-19T13:46:11;7.80;;;1.77;;
15921;SDS011;8060;50.948;3.146;2023-10-19T13:48:39;7.38;;;1.85;;
15921;SDS011;8060;50.948;3.146;2023-10-19T13:51:08;11.27;;;2.55;;
15921;SDS011;8060;50.948;3.146;2023-10-19T13:53:42;8.60;;;2.10;;
15921;SDS011;8060;50.948;3.146;2023-10-19T13:56:12;8.50;;;1.58;;
15921;SDS011;8060;50.948;3.146;2023-10-19T13:58:41;5.45;;;1.67;;
15921;SDS011;8060;50.948;3.146;2023-10-19T14:01:10;8.07;;;2.03;;
15921;SDS011;8060;50.948;3.146;2023-10-19T14:03:42;11.10;;;2.73;;
15921;SDS011;8060;50.948;3.146;2023-10-19T14:06:11;7.80;;;2.40;;
15921;SDS011;8060;50.948;3.146;2023-10-19T14:08:42;14.27;;;3.10;;
15921;SDS011;8060;50.948;3.146;2023-10-19T14:11:10;6.90;;;2.37;;
15921;SDS011;8060;50.948;3.146;2023-10-19T14:13:38;7.37;;;2.03;;
15921;SDS011;8060;50.948;3.146;2023-10-19T14:16:09;15.57;;;4.27;;
15921;SDS011;8060;50.948;3.146;2023-10-19T14:18:37;12.75;;;3.25;;
15921;SDS011;8060;50.948;3.146;2023-10-19T14:21:13;12.75;;;4.10;;
15921;SDS011;8060;50.948;3.146;2023-10-19T14:23:44;11.70;;;4.45;;
15921;SDS011;8060;50.948;3.146;2023-10-19T14:26:14;23.10;;;7.53;;
15921;SDS011;8060;50.948;3.146;2023-10-19T14:28:44;22.10;;;8.00;;
15921;SDS011;8060;50.948;3.146;2023-10-19T14:31:12;9.50;;;2.65;;
15921;SDS011;8060;50.948;3.146;2023-10-19T14:33:40;11.43;;;3.50;;
15921;SDS011;8060;50.948;3.146;2023-10-19T14:36:08;10.43;;;3.15;;
15921;SDS011;8060;50.948;3.146;2023-10-19T14:38:37;6.18;;;1.70;;
15921;SDS011;8060;50.948;3.146;2023-10-19T14:41:07;9.30;;;2.33;;
15921;SDS011;8060;50.948;3.146;2023-10-19T14:43:36;5.13;;;2.00;;
15921;SDS011;8060;50.948;3.146;2023-10-19T14:46:04;6.07;;;1.80;;
15921;SDS011;8060;50.948;3.146;2023-10-19T14:48:33;13.77;;;2.15;;
15921;SDS011;8060;50.948;3.146;2023-10-19T14:51:03;7.57;;;2.05;;
15921;SDS011;8060;50.948;3.146;2023-10-19T14:53:32;8.13;;;1.95;;
15921;SDS011;8060;50.948;3.146;2023-10-19T14:56:00;8.00;;;2.13;;
15921;SDS011;8060;50.948;3.146;2023-10-19T14:58:30;8.80;;;2.05;;
15921;SDS011;8060;50.948;3.146;2023-10-19T15:00:58;8.05;;;1.92;;
15921;SDS011;8060;50.948;3.146;2023-10-19T15:03:27;5.75;;;1.88;;
15921;SDS011;8060;50.948;3.146;2023-10-19T15:05:55;15.18;;;2.40;;
15921;SDS011;8060;50.948;3.146;2023-10-19T15:08:26;9.85;;;1.67;;
15921;SDS011;8060;50.948;3.146;2023-10-19T15:10:58;11.18;;;1.80;;
15921;SDS011;8060;50.948;3.146;2023-10-19T15:13:26;10.27;;;1.60;;
15921;SDS011;8060;50.948;3.146;2023-10-19T15:15:56;6.17;;;1.70;;
15921;SDS011;8060;50.948;3.146;2023-10-19T15:18:24;8.47;;;1.60;;
15921;SDS011;8060;50.948;3.146;2023-10-19T15:20:52;9.10;;;1.97;;